sensor_id;sensor_type;location;lat;lon;timestamp;temperature;humidity
31639;DHT22;18248;51.522;7.020;2023-06-14T00:01:58;21.20;63.20
31639;DHT22;18248;51.522;7.020;2023-06-14T00:04:56;21.10;63.40
31639;DHT22;18248;51.522;7.020;2023-06-14T00:07:55;21.10;63.70
31639;DHT22;18248;51.522;7.020;2023-06-14T00:10:53;21.00;64.00
31639;DHT22;18248;51.522;7.020;2023-06-14T00:13:52;21.00;63.60
31639;DHT22;18248;51.522;7.020;2023-06-14T00:16:51;21.00;63.90
31639;DHT22;18248;51.522;7.020;2023-06-14T00:19:51;20.90;64.00
31639;DHT22;18248;51.522;7.020;2023-06-14T00:22:49;20.90;64.10
31639;DHT22;18248;51.522;7.020;2023-06-14T00:25:48;20.90;64.20
31639;DHT22;18248;51.522;7.020;2023-06-14T00:28:47;20.80;64.20
31639;DHT22;18248;51.522;7.020;2023-06-14T00:31:45;20.80;64.40
31639;DHT22;18248;51.522;7.020;2023-06-14T00:34:44;20.70;64.50
31639;DHT22;18248;51.522;7.020;2023-06-14T00:37:42;20.70;64.60
31639;DHT22;18248;51.522;7.020;2023-06-14T00:40:41;20.70;64.70
31639;DHT22;18248;51.522;7.020;2023-06-14T00:43:40;20.70;64.70
31639;DHT22;18248;51.522;7.020;2023-06-14T00:46:40;20.60;64.80
31639;DHT22;18248;51.522;7.020;2023-06-14T00:49:38;20.60;64.80
31639;DHT22;18248;51.522;7.020;2023-06-14T00:52:37;20.50;64.90
31639;DHT22;18248;51.522;7.020;2023-06-14T00:55:36;20.50;65.10
31639;DHT22;18248;51.522;7.020;2023-06-14T00:58:34;20.40;65.00
31639;DHT22;18248;51.522;7.020;2023-06-14T01:01:33;20.40;64.90
31639;DHT22;18248;51.522;7.020;2023-06-14T01:04:32;20.40;65.10
31639;DHT22;18248;51.522;7.020;2023-06-14T01:11:10;20.30;65.50
31639;DHT22;18248;51.522;7.020;2023-06-14T01:14:12;20.20;65.50
31639;DHT22;18248;51.522;7.020;2023-06-14T01:17:11;20.20;65.40
31639;DHT22;18248;51.522;7.020;2023-06-14T01:20:15;20.20;65.60
31639;DHT22;18248;51.522;7.020;2023-06-14T01:23:20;20.10;65.70
31639;DHT22;18248;51.522;7.020;2023-06-14T01:26:22;20.10;65.80
31639;DHT22;18248;51.522;7.020;2023-06-14T01:29:23;20.10;65.70
31639;DHT22;18248;51.522;7.020;2023-06-14T01:32:26;20.00;65.60
31639;DHT22;18248;51.522;7.020;2023-06-14T01:35:27;20.00;65.60
31639;DHT22;18248;51.522;7.020;2023-06-14T01:38:26;19.90;65.60
31639;DHT22;18248;51.522;7.020;2023-06-14T01:41:27;19.90;65.60
31639;DHT22;18248;51.522;7.020;2023-06-14T01:44:27;19.90;65.50
31639;DHT22;18248;51.522;7.020;2023-06-14T01:47:27;19.90;65.50
31639;DHT22;18248;51.522;7.020;2023-06-14T01:50:30;19.90;65.60
31639;DHT22;18248;51.522;7.020;2023-06-14T01:53:29;19.80;65.90
31639;DHT22;18248;51.522;7.020;2023-06-14T01:56:29;19.70;65.90
31639;DHT22;18248;51.522;7.020;2023-06-14T01:59:27;19.70;65.50
31639;DHT22;18248;51.522;7.020;2023-06-14T02:02:29;19.70;65.60
31639;DHT22;18248;51.522;7.020;2023-06-14T02:05:30;19.60;65.80
31639;DHT22;18248;51.522;7.020;2023-06-14T02:08:29;19.60;65.90
31639;DHT22;18248;51.522;7.020;2023-06-14T02:11:27;19.60;66.10
31639;DHT22;18248;51.522;7.020;2023-06-14T02:14:26;19.60;66.00
31639;DHT22;18248;51.522;7.020;2023-06-14T02:17:25;19.50;66.50
31639;DHT22;18248;51.522;7.020;2023-06-14T02:20:24;19.50;66.30
31639;DHT22;18248;51.522;7.020;2023-06-14T02:23:23;19.50;66.20
31639;DHT22;18248;51.522;7.020;2023-06-14T02:26:22;19.40;66.10
31639;DHT22;18248;51.522;7.020;2023-06-14T02:29:23;19.40;66.20
31639;DHT22;18248;51.522;7.020;2023-06-14T02:32:22;19.30;66.10
31639;DHT22;18248;51.522;7.020;2023-06-14T02:35:21;19.30;66.40
31639;DHT22;18248;51.522;7.020;2023-06-14T02:38:22;19.30;66.40
31639;DHT22;18248;51.522;7.020;2023-06-14T02:41:21;19.30;66.40
31639;DHT22;18248;51.522;7.020;2023-06-14T02:44:23;19.30;66.60
31639;DHT22;18248;51.522;7.020;2023-06-14T02:47:23;19.20;66.70
31639;DHT22;18248;51.522;7.020;2023-06-14T02:50:22;19.20;66.80
31639;DHT22;18248;51.522;7.020;2023-06-14T02:53:22;19.20;67.30
31639;DHT22;18248;51.522;7.020;2023-06-14T02:56:21;19.20;67.10
31639;DHT22;18248;51.522;7.020;2023-06-14T02:59:20;19.10;67.10
31639;DHT22;18248;51.522;7.020;2023-06-14T03:02:19;19.10;67.10
31639;DHT22;18248;51.522;7.020;2023-06-14T03:05:18;19.10;67.20
31639;DHT22;18248;51.522;7.020;2023-06-14T03:08:19;19.10;67.40
31639;DHT22;18248;51.522;7.020;2023-06-14T03:11:18;19.00;67.60
31639;DHT22;18248;51.522;7.020;2023-06-14T03:14:18;19.00;67.60
31639;DHT22;18248;51.522;7.020;2023-06-14T03:17:18;18.90;67.80
31639;DHT22;18248;51.522;7.020;2023-06-14T03:20:18;18.90;67.90
31639;DHT22;18248;51.522;7.020;2023-06-14T03:23:17;18.90;68.00
31639;DHT22;18248;51.522;7.020;2023-06-14T03:26:16;18.90;68.10
31639;DHT22;18248;51.522;7.020;2023-06-14T03:29:16;18.80;68.40
31639;DHT22;18248;51.522;7.020;2023-06-14T03:32:14;18.80;69.00
31639;DHT22;18248;51.522;7.020;2023-06-14T03:35:13;18.70;69.20
31639;DHT22;18248;51.522;7.020;2023-06-14T03:38:16;18.70;69.20
31639;DHT22;18248;51.522;7.020;2023-06-14T03:41:14;18.70;69.30
31639;DHT22;18248;51.522;7.020;2023-06-14T03:44:16;18.70;69.70
31639;DHT22;18248;51.522;7.020;2023-06-14T03:47:15;18.70;69.90
31639;DHT22;18248;51.522;7.020;2023-06-14T03:50:17;18.70;70.00
31639;DHT22;18248;51.522;7.020;2023-06-14T03:53:16;18.60;70.40
31639;DHT22;18248;51.522;7.020;2023-06-14T03:56:16;18.60;70.40
31639;DHT22;18248;51.522;7.020;2023-06-14T03:59:15;18.60;70.70
31639;DHT22;18248;51.522;7.020;2023-06-14T04:02:13;18.60;71.00
31639;DHT22;18248;51.522;7.020;2023-06-14T04:05:16;18.60;71.10
31639;DHT22;18248;51.522;7.020;2023-06-14T04:08:17;18.60;71.20
31639;DHT22;18248;51.522;7.020;2023-06-14T04:11:17;18.50;71.20
31639;DHT22;18248;51.522;7.020;2023-06-14T04:14:18;18.60;71.00
31639;DHT22;18248;51.522;7.020;2023-06-14T04:17:16;18.60;71.40
31639;DHT22;18248;51.522;7.020;2023-06-14T04:20:15;18.60;72.10
31639;DHT22;18248;51.522;7.020;2023-06-14T04:23:16;18.60;71.70
31639;DHT22;18248;51.522;7.020;2023-06-14T04:26:16;18.60;71.90
31639;DHT22;18248;51.522;7.020;2023-06-14T04:29:15;18.60;71.80
31639;DHT22;18248;51.522;7.020;2023-06-14T04:32:14;18.60;72.20
31639;DHT22;18248;51.522;7.020;2023-06-14T04:35:14;18.70;72.10
31639;DHT22;18248;51.522;7.020;2023-06-14T04:38:14;18.70;72.20
31639;DHT22;18248;51.522;7.020;2023-06-14T04:41:14;18.80;72.40
31639;DHT22;18248;51.522;7.020;2023-06-14T04:44:15;18.70;72.30
31639;DHT22;18248;51.522;7.020;2023-06-14T04:47:15;18.70;72.10
31639;DHT22;18248;51.522;7.020;2023-06-14T04:50:15;18.80;72.30
31639;DHT22;18248;51.522;7.020;2023-06-14T04:53:16;18.80;72.20
31639;DHT22;18248;51.522;7.020;2023-06-14T04:56:15;19.40;73.00
31639;DHT22;18248;51.522;7.020;2023-06-14T04:59:15;20.90;71.70
31639;DHT22;18248;51.522;7.020;2023-06-14T05:02:15;22.80;69.00
31639;DHT22;18248;51.522;7.020;2023-06-14T05:05:14;24.10;63.60
31639;DHT22;18248;51.522;7.020;2023-06-14T05:08:14;25.20;61.50
31639;DHT22;18248;51.522;7.020;2023-06-14T05:11:12;26.40;58.90
31639;DHT22;18248;51.522;7.020;2023-06-14T05:14:11;27.20;58.10
31639;DHT22;18248;51.522;7.020;2023-06-14T05:17:10;28.00;55.90
31639;DHT22;18248;51.522;7.020;2023-06-14T05:20:09;28.00;54.80
31639;DHT22;18248;51.522;7.020;2023-06-14T05:23:11;27.30;55.00
31639;DHT22;18248;51.522;7.020;2023-06-14T05:26:13;27.50;55.50
31639;DHT22;18248;51.522;7.020;2023-06-14T05:29:12;27.40;54.40
31639;DHT22;18248;51.522;7.020;2023-06-14T05:32:11;26.40;54.70
31639;DHT22;18248;51.522;7.020;2023-06-14T05:35:09;25.40;55.90
31639;DHT22;18248;51.522;7.020;2023-06-14T05:38:08;24.60;56.70
31639;DHT22;18248;51.522;7.020;2023-06-14T05:41:07;23.80;57.90
31639;DHT22;18248;51.522;7.020;2023-06-14T05:44:05;23.40;58.80
31639;DHT22;18248;51.522;7.020;2023-06-14T05:47:05;23.40;59.60
31639;DHT22;18248;51.522;7.020;2023-06-14T05:50:04;24.60;58.50
31639;DHT22;18248;51.522;7.020;2023-06-14T05:53:03;26.00;57.50
31639;DHT22;18248;51.522;7.020;2023-06-14T05:56:02;27.30;56.00
31639;DHT22;18248;51.522;7.020;2023-06-14T05:59:00;28.50;54.50
31639;DHT22;18248;51.522;7.020;2023-06-14T06:01:59;29.50;53.40
31639;DHT22;18248;51.522;7.020;2023-06-14T06:04:57;30.10;52.80
31639;DHT22;18248;51.522;7.020;2023-06-14T06:07:56;31.00;51.10
31639;DHT22;18248;51.522;7.020;2023-06-14T06:10:55;31.70;50.40
31639;DHT22;18248;51.522;7.020;2023-06-14T06:13:56;32.10;50.10
31639;DHT22;18248;51.522;7.020;2023-06-14T06:16:55;33.00;48.90
31639;DHT22;18248;51.522;7.020;2023-06-14T06:19:54;33.90;48.30
31639;DHT22;18248;51.522;7.020;2023-06-14T06:22:52;34.70;46.90
31639;DHT22;18248;51.522;7.020;2023-06-14T06:25:51;35.40;46.20
31639;DHT22;18248;51.522;7.020;2023-06-14T06:28:50;35.70;45.60
31639;DHT22;18248;51.522;7.020;2023-06-14T06:31:48;36.20;44.80
31639;DHT22;18248;51.522;7.020;2023-06-14T06:34:47;36.20;44.50
31639;DHT22;18248;51.522;7.020;2023-06-14T06:37:47;36.40;44.10
31639;DHT22;18248;51.522;7.020;2023-06-14T06:40:45;36.90;44.20
31639;DHT22;18248;51.522;7.020;2023-06-14T06:43:45;37.40;43.60
31639;DHT22;18248;51.522;7.020;2023-06-14T06:46:43;37.70;42.80
31639;DHT22;18248;51.522;7.020;2023-06-14T06:49:42;37.30;42.30
31639;DHT22;18248;51.522;7.020;2023-06-14T06:52:40;36.90;42.40
31639;DHT22;18248;51.522;7.020;2023-06-14T06:55:39;37.10;42.50
31639;DHT22;18248;51.522;7.020;2023-06-14T06:58:37;36.90;42.20
31639;DHT22;18248;51.522;7.020;2023-06-14T07:01:36;37.10;42.50
31639;DHT22;18248;51.522;7.020;2023-06-14T07:04:36;36.80;41.30
31639;DHT22;18248;51.522;7.020;2023-06-14T07:07:35;36.00;41.80
31639;DHT22;18248;51.522;7.020;2023-06-14T07:10:34;35.70;43.20
31639;DHT22;18248;51.522;7.020;2023-06-14T07:13:34;36.10;42.70
31639;DHT22;18248;51.522;7.020;2023-06-14T07:16:33;36.50;42.00
31639;DHT22;18248;51.522;7.020;2023-06-14T07:19:32;35.60;42.40
31639;DHT22;18248;51.522;7.020;2023-06-14T07:22:32;35.80;43.30
31639;DHT22;18248;51.522;7.020;2023-06-14T07:25:31;36.00;42.50
31639;DHT22;18248;51.522;7.020;2023-06-14T07:28:30;36.30;43.10
31639;DHT22;18248;51.522;7.020;2023-06-14T07:31:28;37.00;42.80
31639;DHT22;18248;51.522;7.020;2023-06-14T07:34:27;37.40;42.30
31639;DHT22;18248;51.522;7.020;2023-06-14T07:37:27;37.50;41.80
31639;DHT22;18248;51.522;7.020;2023-06-14T07:40:25;37.60;41.80
31639;DHT22;18248;51.522;7.020;2023-06-14T07:43:24;37.70;41.40
31639;DHT22;18248;51.522;7.020;2023-06-14T07:46:22;37.20;41.80
31639;DHT22;18248;51.522;7.020;2023-06-14T07:49:21;37.10;42.10
31639;DHT22;18248;51.522;7.020;2023-06-14T07:52:19;37.30;42.20
31639;DHT22;18248;51.522;7.020;2023-06-14T07:55:18;37.40;41.20
31639;DHT22;18248;51.522;7.020;2023-06-14T07:58:17;37.10;41.50
31639;DHT22;18248;51.522;7.020;2023-06-14T08:01:15;37.00;41.60
31639;DHT22;18248;51.522;7.020;2023-06-14T08:04:15;36.80;41.10
31639;DHT22;18248;51.522;7.020;2023-06-14T08:07:14;36.20;41.60
31639;DHT22;18248;51.522;7.020;2023-06-14T08:10:13;36.20;42.20
31639;DHT22;18248;51.522;7.020;2023-06-14T08:13:11;36.60;42.20
31639;DHT22;18248;51.522;7.020;2023-06-14T08:16:11;36.70;41.70
31639;DHT22;18248;51.522;7.020;2023-06-14T08:19:10;36.80;41.60
31639;DHT22;18248;51.522;7.020;2023-06-14T08:22:08;36.90;41.90
31639;DHT22;18248;51.522;7.020;2023-06-14T08:25:09;37.10;41.70
31639;DHT22;18248;51.522;7.020;2023-06-14T08:28:10;37.30;40.90
31639;DHT22;18248;51.522;7.020;2023-06-14T08:31:09;36.90;41.00
31639;DHT22;18248;51.522;7.020;2023-06-14T08:34:07;36.60;41.20
31639;DHT22;18248;51.522;7.020;2023-06-14T08:37:07;36.50;41.40
31639;DHT22;18248;51.522;7.020;2023-06-14T08:40:22;36.60;41.50
31639;DHT22;18248;51.522;7.020;2023-06-14T08:43:21;36.30;40.90
31639;DHT22;18248;51.522;7.020;2023-06-14T08:46:19;35.70;41.20
31639;DHT22;18248;51.522;7.020;2023-06-14T08:49:18;35.10;41.20
31639;DHT22;18248;51.522;7.020;2023-06-14T08:52:19;34.70;41.80
31639;DHT22;18248;51.522;7.020;2023-06-14T08:55:19;34.20;42.50
31639;DHT22;18248;51.522;7.020;2023-06-14T08:58:18;33.50;42.90
31639;DHT22;18248;51.522;7.020;2023-06-14T09:01:18;32.80;43.60
31639;DHT22;18248;51.522;7.020;2023-06-14T09:04:17;32.20;43.70
31639;DHT22;18248;51.522;7.020;2023-06-14T09:07:21;31.30;44.80
31639;DHT22;18248;51.522;7.020;2023-06-14T09:10:20;30.70;45.00
31639;DHT22;18248;51.522;7.020;2023-06-14T09:13:19;30.00;45.10
31639;DHT22;18248;51.522;7.020;2023-06-14T09:16:18;29.90;47.00
31639;DHT22;18248;51.522;7.020;2023-06-14T09:19:25;30.00;46.80
31639;DHT22;18248;51.522;7.020;2023-06-14T09:22:24;30.20;47.30
31639;DHT22;18248;51.522;7.020;2023-06-14T09:25:23;30.40;46.70
31639;DHT22;18248;51.522;7.020;2023-06-14T09:28:29;30.00;46.40
31639;DHT22;18248;51.522;7.020;2023-06-14T09:31:29;29.70;47.70
31639;DHT22;18248;51.522;7.020;2023-06-14T09:34:30;29.70;47.10
31639;DHT22;18248;51.522;7.020;2023-06-14T09:37:29;29.50;46.90
31639;DHT22;18248;51.522;7.020;2023-06-14T09:40:28;29.50;46.80
31639;DHT22;18248;51.522;7.020;2023-06-14T09:43:32;29.50;47.70
31639;DHT22;18248;51.522;7.020;2023-06-14T09:46:32;29.30;47.40
31639;DHT22;18248;51.522;7.020;2023-06-14T09:49:31;29.10;47.50
31639;DHT22;18248;51.522;7.020;2023-06-14T09:52:31;29.30;48.00
31639;DHT22;18248;51.522;7.020;2023-06-14T09:55:31;29.40;48.20
31639;DHT22;18248;51.522;7.020;2023-06-14T09:58:33;29.30;47.80
31639;DHT22;18248;51.522;7.020;2023-06-14T10:01:34;29.20;47.60
31639;DHT22;18248;51.522;7.020;2023-06-14T10:04:34;29.30;47.80
31639;DHT22;18248;51.522;7.020;2023-06-14T10:07:38;29.30;47.50
31639;DHT22;18248;51.522;7.020;2023-06-14T10:10:39;29.30;47.30
31639;DHT22;18248;51.522;7.020;2023-06-14T10:13:38;29.10;48.10
31639;DHT22;18248;51.522;7.020;2023-06-14T10:20:03;29.40;48.10
31639;DHT22;18248;51.522;7.020;2023-06-14T10:23:10;29.50;46.90
31639;DHT22;18248;51.522;7.020;2023-06-14T10:26:18;29.50;47.00
31639;DHT22;18248;51.522;7.020;2023-06-14T10:29:18;29.20;47.00
31639;DHT22;18248;51.522;7.020;2023-06-14T10:32:17;29.30;48.30
31639;DHT22;18248;51.522;7.020;2023-06-14T10:35:20;29.30;48.30
31639;DHT22;18248;51.522;7.020;2023-06-14T10:38:30;29.40;48.30
31639;DHT22;18248;51.522;7.020;2023-06-14T10:41:29;29.60;49.10
31639;DHT22;18248;51.522;7.020;2023-06-14T10:44:38;29.60;47.70
31639;DHT22;18248;51.522;7.020;2023-06-14T10:47:37;29.40;48.50
31639;DHT22;18248;51.522;7.020;2023-06-14T10:50:42;29.20;48.60
31639;DHT22;18248;51.522;7.020;2023-06-14T10:53:43;29.20;47.50
31639;DHT22;18248;51.522;7.020;2023-06-14T10:56:48;29.10;48.10
31639;DHT22;18248;51.522;7.020;2023-06-14T10:59:49;29.40;48.40
31639;DHT22;18248;51.522;7.020;2023-06-14T11:03:28;29.40;48.50
31639;DHT22;18248;51.522;7.020;2023-06-14T11:06:45;29.40;48.00
31639;DHT22;18248;51.522;7.020;2023-06-14T11:10:09;29.60;48.10
31639;DHT22;18248;51.522;7.020;2023-06-14T11:13:09;29.20;48.20
31639;DHT22;18248;51.522;7.020;2023-06-14T11:16:15;29.30;48.50
31639;DHT22;18248;51.522;7.020;2023-06-14T11:19:14;29.60;48.20
31639;DHT22;18248;51.522;7.020;2023-06-14T11:22:15;29.60;47.90
31639;DHT22;18248;51.522;7.020;2023-06-14T11:25:15;29.20;47.70
31639;DHT22;18248;51.522;7.020;2023-06-14T11:28:13;28.80;48.30
31639;DHT22;18248;51.522;7.020;2023-06-14T11:31:12;28.90;48.90
31639;DHT22;18248;51.522;7.020;2023-06-14T11:34:12;29.00;48.90
31639;DHT22;18248;51.522;7.020;2023-06-14T11:37:10;29.20;49.10
31639;DHT22;18248;51.522;7.020;2023-06-14T11:40:12;29.30;49.30
31639;DHT22;18248;51.522;7.020;2023-06-14T11:43:11;29.30;48.90
31639;DHT22;18248;51.522;7.020;2023-06-14T11:46:14;29.20;48.10
31639;DHT22;18248;51.522;7.020;2023-06-14T11:49:20;28.60;49.20
31639;DHT22;18248;51.522;7.020;2023-06-14T11:52:18;28.70;49.60
31639;DHT22;18248;51.522;7.020;2023-06-14T11:55:17;29.00;49.30
31639;DHT22;18248;51.522;7.020;2023-06-14T11:58:16;29.40;49.30
31639;DHT22;18248;51.522;7.020;2023-06-14T12:01:17;29.70;48.80
31639;DHT22;18248;51.522;7.020;2023-06-14T12:04:26;29.30;48.30
31639;DHT22;18248;51.522;7.020;2023-06-14T12:07:25;29.00;49.90
31639;DHT22;18248;51.522;7.020;2023-06-14T12:10:24;29.30;50.20
31639;DHT22;18248;51.522;7.020;2023-06-14T12:13:25;29.80;50.30
31639;DHT22;18248;51.522;7.020;2023-06-14T12:16:33;30.20;49.90
31639;DHT22;18248;51.522;7.020;2023-06-14T12:19:32;30.40;50.20
31639;DHT22;18248;51.522;7.020;2023-06-14T12:22:32;30.60;49.90
31639;DHT22;18248;51.522;7.020;2023-06-14T12:25:32;30.60;48.50
31639;DHT22;18248;51.522;7.020;2023-06-14T12:28:31;30.50;48.70
31639;DHT22;18248;51.522;7.020;2023-06-14T12:31:30;30.30;48.70
31639;DHT22;18248;51.522;7.020;2023-06-14T12:34:29;30.50;49.80
31639;DHT22;18248;51.522;7.020;2023-06-14T12:37:30;30.60;48.80
31639;DHT22;18248;51.522;7.020;2023-06-14T12:40:29;30.60;49.00
31639;DHT22;18248;51.522;7.020;2023-06-14T12:43:27;30.90;49.00
31639;DHT22;18248;51.522;7.020;2023-06-14T12:46:26;31.00;49.00
31639;DHT22;18248;51.522;7.020;2023-06-14T12:49:25;30.80;48.50
31639;DHT22;18248;51.522;7.020;2023-06-14T12:52:23;30.70;48.70
31639;DHT22;18248;51.522;7.020;2023-06-14T12:55:22;30.60;49.00
31639;DHT22;18248;51.522;7.020;2023-06-14T12:58:20;30.70;49.20
31639;DHT22;18248;51.522;7.020;2023-06-14T13:01:19;30.80;49.50
31639;DHT22;18248;51.522;7.020;2023-06-14T13:04:18;31.10;49.10
31639;DHT22;18248;51.522;7.020;2023-06-14T13:07:16;31.20;48.90
31639;DHT22;18248;51.522;7.020;2023-06-14T13:10:16;31.30;49.10
31639;DHT22;18248;51.522;7.020;2023-06-14T13:13:15;31.40;49.20
31639;DHT22;18248;51.522;7.020;2023-06-14T13:16:13;31.50;48.70
31639;DHT22;18248;51.522;7.020;2023-06-14T13:19:12;31.20;48.30
31639;DHT22;18248;51.522;7.020;2023-06-14T13:22:11;31.40;49.10
31639;DHT22;18248;51.522;7.020;2023-06-14T13:25:11;31.20;48.10
31639;DHT22;18248;51.522;7.020;2023-06-14T13:28:10;31.20;48.00
31639;DHT22;18248;51.522;7.020;2023-06-14T13:31:11;31.20;48.40
31639;DHT22;18248;51.522;7.020;2023-06-14T13:34:10;31.20;48.40
31639;DHT22;18248;51.522;7.020;2023-06-14T13:37:09;31.20;48.10
31639;DHT22;18248;51.522;7.020;2023-06-14T13:40:08;31.20;48.20
31639;DHT22;18248;51.522;7.020;2023-06-14T13:43:07;31.30;48.10
31639;DHT22;18248;51.522;7.020;2023-06-14T13:46:05;31.30;48.40
31639;DHT22;18248;51.522;7.020;2023-06-14T13:49:04;31.50;48.30
31639;DHT22;18248;51.522;7.020;2023-06-14T13:52:03;31.60;48.30
31639;DHT22;18248;51.522;7.020;2023-06-14T13:55:02;31.60;48.50
31639;DHT22;18248;51.522;7.020;2023-06-14T13:58:01;31.80;48.30
31639;DHT22;18248;51.522;7.020;2023-06-14T14:01:00;31.70;47.90
31639;DHT22;18248;51.522;7.020;2023-06-14T14:03:59;31.60;47.80
31639;DHT22;18248;51.522;7.020;2023-06-14T14:06:58;31.60;47.70
31639;DHT22;18248;51.522;7.020;2023-06-14T14:09:57;31.60;48.00
31639;DHT22;18248;51.522;7.020;2023-06-14T14:12:56;31.60;48.00
31639;DHT22;18248;51.522;7.020;2023-06-14T14:15:55;31.60;48.40
31639;DHT22;18248;51.522;7.020;2023-06-14T14:18:54;31.70;48.20
31639;DHT22;18248;51.522;7.020;2023-06-14T14:21:56;31.40;47.40
31639;DHT22;18248;51.522;7.020;2023-06-14T14:24:55;31.20;48.30
31639;DHT22;18248;51.522;7.020;2023-06-14T14:27:53;31.40;48.40
31639;DHT22;18248;51.522;7.020;2023-06-14T14:30:52;31.70;47.90
31639;DHT22;18248;51.522;7.020;2023-06-14T14:33:52;31.70;48.00
31639;DHT22;18248;51.522;7.020;2023-06-14T14:36:50;31.70;47.60
31639;DHT22;18248;51.522;7.020;2023-06-14T14:39:49;31.70;48.00
31639;DHT22;18248;51.522;7.020;2023-06-14T14:42:48;31.80;47.30
31639;DHT22;18248;51.522;7.020;2023-06-14T14:45:46;31.70;47.20
31639;DHT22;18248;51.522;7.020;2023-06-14T14:48:44;31.20;47.30
31639;DHT22;18248;51.522;7.020;2023-06-14T14:51:43;31.20;47.90
31639;DHT22;18248;51.522;7.020;2023-06-14T14:54:42;31.30;48.80
31639;DHT22;18248;51.522;7.020;2023-06-14T14:57:40;31.30;48.10
31639;DHT22;18248;51.522;7.020;2023-06-14T15:00:39;31.20;47.70
31639;DHT22;18248;51.522;7.020;2023-06-14T15:03:37;31.00;48.10
31639;DHT22;18248;51.522;7.020;2023-06-14T15:06:37;30.90;48.10
31639;DHT22;18248;51.522;7.020;2023-06-14T15:09:36;31.00;48.70
31639;DHT22;18248;51.522;7.020;2023-06-14T15:12:35;31.20;48.50
31639;DHT22;18248;51.522;7.020;2023-06-14T15:15:35;31.20;48.60
31639;DHT22;18248;51.522;7.020;2023-06-14T15:18:33;31.30;48.40
31639;DHT22;18248;51.522;7.020;2023-06-14T15:21:32;31.30;47.90
31639;DHT22;18248;51.522;7.020;2023-06-14T15:24:30;31.40;48.00
31639;DHT22;18248;51.522;7.020;2023-06-14T15:27:31;31.20;48.20
31639;DHT22;18248;51.522;7.020;2023-06-14T15:30:29;31.20;48.20
31639;DHT22;18248;51.522;7.020;2023-06-14T15:33:28;31.20;48.20
31639;DHT22;18248;51.522;7.020;2023-06-14T15:36:26;31.10;47.90
31639;DHT22;18248;51.522;7.020;2023-06-14T15:39:26;31.00;47.20
31639;DHT22;18248;51.522;7.020;2023-06-14T15:42:25;30.70;47.90
31639;DHT22;18248;51.522;7.020;2023-06-14T15:45:24;30.80;47.70
31639;DHT22;18248;51.522;7.020;2023-06-14T15:48:23;30.80;47.70
31639;DHT22;18248;51.522;7.020;2023-06-14T15:51:21;30.90;47.90
31639;DHT22;18248;51.522;7.020;2023-06-14T15:54:20;30.80;47.90
31639;DHT22;18248;51.522;7.020;2023-06-14T15:57:18;30.80;47.70
31639;DHT22;18248;51.522;7.020;2023-06-14T16:00:17;30.90;48.00
31639;DHT22;18248;51.522;7.020;2023-06-14T16:03:15;30.70;47.60
31639;DHT22;18248;51.522;7.020;2023-06-14T16:06:14;30.70;47.80
31639;DHT22;18248;51.522;7.020;2023-06-14T16:09:13;30.80;47.70
31639;DHT22;18248;51.522;7.020;2023-06-14T16:12:11;30.60;47.20
31639;DHT22;18248;51.522;7.020;2023-06-14T16:15:11;30.70;47.30
31639;DHT22;18248;51.522;7.020;2023-06-14T16:18:09;30.60;47.00
31639;DHT22;18248;51.522;7.020;2023-06-14T16:21:08;30.40;47.30
31639;DHT22;18248;51.522;7.020;2023-06-14T16:24:08;30.30;47.30
31639;DHT22;18248;51.522;7.020;2023-06-14T16:27:07;30.10;46.90
31639;DHT22;18248;51.522;7.020;2023-06-14T16:30:10;30.10;47.60
31639;DHT22;18248;51.522;7.020;2023-06-14T16:33:16;30.10;47.40
31639;DHT22;18248;51.522;7.020;2023-06-14T16:36:18;30.20;47.70
31639;DHT22;18248;51.522;7.020;2023-06-14T16:39:16;30.40;47.40
31639;DHT22;18248;51.522;7.020;2023-06-14T16:42:15;30.20;46.90
31639;DHT22;18248;51.522;7.020;2023-06-14T16:45:14;30.10;47.70
31639;DHT22;18248;51.522;7.020;2023-06-14T16:48:15;30.20;48.00
31639;DHT22;18248;51.522;7.020;2023-06-14T16:51:13;30.10;47.50
31639;DHT22;18248;51.522;7.020;2023-06-14T16:54:12;30.20;47.60
31639;DHT22;18248;51.522;7.020;2023-06-14T16:57:11;30.20;47.60
31639;DHT22;18248;51.522;7.020;2023-06-14T17:00:10;30.10;47.90
31639;DHT22;18248;51.522;7.020;2023-06-14T17:03:09;30.10;47.60
31639;DHT22;18248;51.522;7.020;2023-06-14T17:06:08;30.10;47.30
31639;DHT22;18248;51.522;7.020;2023-06-14T17:09:16;29.90;47.60
31639;DHT22;18248;51.522;7.020;2023-06-14T17:12:15;29.90;48.20
31639;DHT22;18248;51.522;7.020;2023-06-14T17:15:16;29.90;48.10
31639;DHT22;18248;51.522;7.020;2023-06-14T17:18:15;29.70;47.90
31639;DHT22;18248;51.522;7.020;2023-06-14T17:21:17;29.70;48.10
31639;DHT22;18248;51.522;7.020;2023-06-14T17:24:15;29.60;48.10
31639;DHT22;18248;51.522;7.020;2023-06-14T17:27:14;29.40;47.70
31639;DHT22;18248;51.522;7.020;2023-06-14T17:30:17;29.20;47.70
31639;DHT22;18248;51.522;7.020;2023-06-14T17:33:16;29.10;49.00
31639;DHT22;18248;51.522;7.020;2023-06-14T17:36:38;29.00;49.00
31639;DHT22;18248;51.522;7.020;2023-06-14T17:39:37;29.10;49.70
31639;DHT22;18248;51.522;7.020;2023-06-14T17:42:38;29.00;49.80
31639;DHT22;18248;51.522;7.020;2023-06-14T17:45:40;29.00;49.70
31639;DHT22;18248;51.522;7.020;2023-06-14T17:48:38;28.90;49.40
31639;DHT22;18248;51.522;7.020;2023-06-14T17:51:37;28.70;49.60
31639;DHT22;18248;51.522;7.020;2023-06-14T17:54:36;28.70;50.10
31639;DHT22;18248;51.522;7.020;2023-06-14T17:57:34;28.50;50.10
31639;DHT22;18248;51.522;7.020;2023-06-14T18:00:33;28.50;50.50
31639;DHT22;18248;51.522;7.020;2023-06-14T18:03:31;28.40;50.70
31639;DHT22;18248;51.522;7.020;2023-06-14T18:06:30;28.40;50.90
31639;DHT22;18248;51.522;7.020;2023-06-14T18:09:28;28.40;51.10
31639;DHT22;18248;51.522;7.020;2023-06-14T18:12:27;28.40;51.90
31639;DHT22;18248;51.522;7.020;2023-06-14T18:15:25;28.40;51.50
31639;DHT22;18248;51.522;7.020;2023-06-14T18:18:24;28.30;51.60
31639;DHT22;18248;51.522;7.020;2023-06-14T18:21:22;28.20;51.70
31639;DHT22;18248;51.522;7.020;2023-06-14T18:24:21;28.00;51.60
31639;DHT22;18248;51.522;7.020;2023-06-14T18:27:21;27.90;51.90
31639;DHT22;18248;51.522;7.020;2023-06-14T18:30:19;27.90;52.10
31639;DHT22;18248;51.522;7.020;2023-06-14T18:33:18;27.60;51.70
31639;DHT22;18248;51.522;7.020;2023-06-14T18:36:18;27.50;52.00
31639;DHT22;18248;51.522;7.020;2023-06-14T18:39:17;27.40;52.40
31639;DHT22;18248;51.522;7.020;2023-06-14T18:42:17;27.30;52.30
31639;DHT22;18248;51.522;7.020;2023-06-14T18:45:16;27.20;52.30
31639;DHT22;18248;51.522;7.020;2023-06-14T18:48:15;27.00;52.50
31639;DHT22;18248;51.522;7.020;2023-06-14T18:51:14;26.90;52.60
31639;DHT22;18248;51.522;7.020;2023-06-14T18:54:12;26.70;53.00
31639;DHT22;18248;51.522;7.020;2023-06-14T18:57:12;26.60;53.50
31639;DHT22;18248;51.522;7.020;2023-06-14T19:00:11;26.60;53.60
31639;DHT22;18248;51.522;7.020;2023-06-14T19:03:12;26.50;53.10